sensor_id;sensor_type;location;lat;lon;timestamp;P1;durP1;ratioP1;P2;durP2;ratioP2
74448;SDS011;62878;51.026;4.472;2022-12-07T00:01:12;4.90;;;1.48;;
74448;SDS011;62878;51.026;4.472;2022-12-07T00:03:40;2.83;;;1.42;;
74448;SDS011;62878;51.026;4.472;2022-12-07T00:06:07;3.10;;;1.58;;
74448;SDS011;62878;51.026;4.472;2022-12-07T00:08:34;2.95;;;1.58;;
74448;SDS011;62878;51.026;4.472;2022-12-07T00:11:11;3.35;;;1.70;;
74448;SDS011;62878;51.026;4.472;2022-12-07T00:13:36;3.13;;;1.65;;
74448;SDS011;62878;51.026;4.472;2022-12-07T00:16:04;2.97;;;1.42;;
74448;SDS011;62878;51.026;4.472;2022-12-07T00:18:31;2.03;;;1.60;;
74448;SDS011;62878;51.026;4.472;2022-12-07T00:21:04;2.70;;;1.25;;
74448;SDS011;62878;51.026;4.472;2022-12-07T00:23:37;3.90;;;1.73;;
74448;SDS011;62878;51.026;4.472;2022-12-07T00:26:04;2.08;;;1.30;;
74448;SDS011;62878;51.026;4.472;2022-12-07T00:28:30;2.78;;;1.70;;
74448;SDS011;62878;51.026;4.472;2022-12-07T00:31:03;3.72;;;2.10;;
74448;SDS011;62878;51.026;4.472;2022-12-07T00:33:30;2.30;;;1.38;;
74448;SDS011;62878;51.026;4.472;2022-12-07T00:35:56;4.93;;;1.90;;
74448;SDS011;62878;51.026;4.472;2022-12-07T00:38:23;2.55;;;1.63;;
74448;SDS011;62878;51.026;4.472;2022-12-07T00:40:58;3.28;;;1.75;;
74448;SDS011;62878;51.026;4.472;2022-12-07T00:43:26;2.70;;;1.48;;
74448;SDS011;62878;51.026;4.472;2022-12-07T00:45:52;2.92;;;1.35;;
74448;SDS011;62878;51.026;4.472;2022-12-07T00:48:18;4.03;;;1.60;;
74448;SDS011;62878;51.026;4.472;2022-12-07T00:50:43;1.88;;;1.30;;
74448;SDS011;62878;51.026;4.472;2022-12-07T00:53:10;3.08;;;1.40;;
74448;SDS011;62878;51.026;4.472;2022-12-07T00:55:35;4.43;;;1.40;;
74448;SDS011;62878;51.026;4.472;2022-12-07T00:58:02;2.08;;;1.33;;
74448;SDS011;62878;51.026;4.472;2022-12-07T01:00:28;4.68;;;1.45;;
74448;SDS011;62878;51.026;4.472;2022-12-07T01:02:53;3.38;;;2.13;;
74448;SDS011;62878;51.026;4.472;2022-12-07T01:05:19;2.78;;;1.88;;
74448;SDS011;62878;51.026;4.472;2022-12-07T01:07:44;2.88;;;1.48;;
74448;SDS011;62878;51.026;4.472;2022-12-07T01:10:11;2.75;;;1.48;;
74448;SDS011;62878;51.026;4.472;2022-12-07T01:12:37;2.58;;;1.95;;
74448;SDS011;62878;51.026;4.472;2022-12-07T01:15:04;4.53;;;1.45;;
74448;SDS011;62878;51.026;4.472;2022-12-07T01:17:31;3.15;;;1.58;;
74448;SDS011;62878;51.026;4.472;2022-12-07T01:19:56;2.75;;;1.70;;
74448;SDS011;62878;51.026;4.472;2022-12-07T01:22:21;2.05;;;1.58;;
74448;SDS011;62878;51.026;4.472;2022-12-07T01:24:47;4.32;;;1.40;;
74448;SDS011;62878;51.026;4.472;2022-12-07T01:27:13;2.67;;;1.70;;
74448;SDS011;62878;51.026;4.472;2022-12-07T01:29:38;5.22;;;1.40;;
74448;SDS011;62878;51.026;4.472;2022-12-07T01:32:04;4.43;;;2.00;;
74448;SDS011;62878;51.026;4.472;2022-12-07T01:34:30;3.65;;;1.40;;
74448;SDS011;62878;51.026;4.472;2022-12-07T01:36:56;4.82;;;2.03;;
74448;SDS011;62878;51.026;4.472;2022-12-07T01:39:22;3.30;;;1.30;;
74448;SDS011;62878;51.026;4.472;2022-12-07T01:41:48;2.95;;;1.90;;
74448;SDS011;62878;51.026;4.472;2022-12-07T01:44:23;3.17;;;1.88;;
74448;SDS011;62878;51.026;4.472;2022-12-07T01:47:03;3.30;;;1.25;;
74448;SDS011;62878;51.026;4.472;2022-12-07T01:54:51;3.00;;;1.30;;
74448;SDS011;62878;51.026;4.472;2022-12-07T01:57:19;3.45;;;2.03;;
74448;SDS011;62878;51.026;4.472;2022-12-07T01:59:45;3.40;;;1.77;;
74448;SDS011;62878;51.026;4.472;2022-12-07T02:02:17;4.68;;;1.80;;
74448;SDS011;62878;51.026;4.472;2022-12-07T02:04:50;4.25;;;1.98;;
74448;SDS011;62878;51.026;4.472;2022-12-07T02:07:18;4.10;;;2.05;;
74448;SDS011;62878;51.026;4.472;2022-12-07T02:09:44;4.65;;;1.50;;
74448;SDS011;62878;51.026;4.472;2022-12-07T02:12:10;2.42;;;1.52;;
74448;SDS011;62878;51.026;4.472;2022-12-07T02:14:35;3.78;;;2.05;;
74448;SDS011;62878;51.026;4.472;2022-12-07T02:17:21;2.97;;;1.55;;
74448;SDS011;62878;51.026;4.472;2022-12-07T02:25:39;3.53;;;2.00;;
74448;SDS011;62878;51.026;4.472;2022-12-07T02:31:14;2.50;;;1.55;;
74448;SDS011;62878;51.026;4.472;2022-12-07T02:33:46;2.10;;;1.50;;
74448;SDS011;62878;51.026;4.472;2022-12-07T02:36:21;2.88;;;1.48;;
74448;SDS011;62878;51.026;4.472;2022-12-07T02:44:20;3.63;;;1.65;;
74448;SDS011;62878;51.026;4.472;2022-12-07T02:46:51;2.65;;;1.30;;
74448;SDS011;62878;51.026;4.472;2022-12-07T02:49:21;3.78;;;1.83;;
74448;SDS011;62878;51.026;4.472;2022-12-07T02:51:48;2.72;;;1.42;;
74448;SDS011;62878;51.026;4.472;2022-12-07T02:54:15;1.90;;;1.08;;
74448;SDS011;62878;51.026;4.472;2022-12-07T03:05:22;3.08;;;1.73;;
74448;SDS011;62878;51.026;4.472;2022-12-07T03:16:20;6.03;;;1.50;;
74448;SDS011;62878;51.026;4.472;2022-12-07T03:18:55;3.70;;;1.65;;
74448;SDS011;62878;51.026;4.472;2022-12-07T03:21:23;4.22;;;1.20;;
74448;SDS011;62878;51.026;4.472;2022-12-07T03:23:53;2.30;;;1.45;;
74448;SDS011;62878;51.026;4.472;2022-12-07T03:26:22;3.42;;;1.30;;
74448;SDS011;62878;51.026;4.472;2022-12-07T03:28:54;1.98;;;1.17;;
74448;SDS011;62878;51.026;4.472;2022-12-07T03:31:24;2.33;;;1.30;;
74448;SDS011;62878;51.026;4.472;2022-12-07T03:34:14;1.42;;;0.98;;
74448;SDS011;62878;51.026;4.472;2022-12-07T03:41:39;2.28;;;1.15;;
74448;SDS011;62878;51.026;4.472;2022-12-07T03:44:04;2.83;;;1.15;;
74448;SDS011;62878;51.026;4.472;2022-12-07T03:46:51;3.83;;;1.15;;
74448;SDS011;62878;51.026;4.472;2022-12-07T03:49:43;2.47;;;1.23;;
74448;SDS011;62878;51.026;4.472;2022-12-07T03:55:11;2.03;;;1.05;;
74448;SDS011;62878;51.026;4.472;2022-12-07T03:57:38;1.88;;;1.10;;
74448;SDS011;62878;51.026;4.472;2022-12-07T04:00:06;1.77;;;0.93;;
74448;SDS011;62878;51.026;4.472;2022-12-07T04:02:32;2.95;;;1.40;;
74448;SDS011;62878;51.026;4.472;2022-12-07T04:04:58;1.63;;;0.90;;
74448;SDS011;62878;51.026;4.472;2022-12-07T04:07:24;1.95;;;1.33;;
74448;SDS011;62878;51.026;4.472;2022-12-07T04:09:50;1.65;;;1.15;;
74448;SDS011;62878;51.026;4.472;2022-12-07T04:12:16;3.08;;;1.05;;
74448;SDS011;62878;51.026;4.472;2022-12-07T04:14:41;3.42;;;1.00;;
74448;SDS011;62878;51.026;4.472;2022-12-07T04:17:06;2.05;;;1.02;;
74448;SDS011;62878;51.026;4.472;2022-12-07T04:19:33;3.20;;;1.23;;
74448;SDS011;62878;51.026;4.472;2022-12-07T04:22:00;1.98;;;0.80;;
74448;SDS011;62878;51.026;4.472;2022-12-07T04:24:26;1.55;;;1.30;;
74448;SDS011;62878;51.026;4.472;2022-12-07T04:26:52;1.25;;;0.70;;
74448;SDS011;62878;51.026;4.472;2022-12-07T04:29:17;1.88;;;0.82;;
74448;SDS011;62878;51.026;4.472;2022-12-07T04:31:43;3.45;;;0.80;;
74448;SDS011;62878;51.026;4.472;2022-12-07T04:34:09;1.42;;;0.90;;
74448;SDS011;62878;51.026;4.472;2022-12-07T04:36:35;3.15;;;0.82;;
74448;SDS011;62878;51.026;4.472;2022-12-07T04:39:00;3.85;;;1.05;;
74448;SDS011;62878;51.026;4.472;2022-12-07T04:41:26;2.33;;;0.98;;
74448;SDS011;62878;51.026;4.472;2022-12-07T04:46:21;3.38;;;1.10;;
74448;SDS011;62878;51.026;4.472;2022-12-07T04:48:48;1.73;;;0.80;;
74448;SDS011;62878;51.026;4.472;2022-12-07T04:51:16;2.25;;;0.90;;
74448;SDS011;62878;51.026;4.472;2022-12-07T04:53:44;1.38;;;0.63;;
74448;SDS011;62878;51.026;4.472;2022-12-07T04:56:10;1.58;;;0.90;;
74448;SDS011;62878;51.026;4.472;2022-12-07T04:58:35;2.47;;;0.85;;
74448;SDS011;62878;51.026;4.472;2022-12-07T05:01:00;1.75;;;0.70;;
74448;SDS011;62878;51.026;4.472;2022-12-07T05:03:26;2.95;;;0.80;;
74448;SDS011;62878;51.026;4.472;2022-12-07T05:05:51;1.05;;;0.70;;
74448;SDS011;62878;51.026;4.472;2022-12-07T05:08:17;1.80;;;0.60;;
74448;SDS011;62878;51.026;4.472;2022-12-07T05:10:43;1.20;;;0.80;;
74448;SDS011;62878;51.026;4.472;2022-12-07T05:13:08;1.95;;;0.77;;
74448;SDS011;62878;51.026;4.472;2022-12-07T05:15:34;2.22;;;1.17;;
74448;SDS011;62878;51.026;4.472;2022-12-07T05:17:59;1.25;;;0.70;;
74448;SDS011;62878;51.026;4.472;2022-12-07T05:20:25;2.03;;;0.80;;
74448;SDS011;62878;51.026;4.472;2022-12-07T05:22:50;3.55;;;0.90;;
74448;SDS011;62878;51.026;4.472;2022-12-07T05:25:15;1.42;;;0.93;;
74448;SDS011;62878;51.026;4.472;2022-12-07T05:27:41;2.78;;;1.35;;
74448;SDS011;62878;51.026;4.472;2022-12-07T05:30:06;3.10;;;0.82;;
74448;SDS011;62878;51.026;4.472;2022-12-07T05:32:32;1.77;;;0.70;;
74448;SDS011;62878;51.026;4.472;2022-12-07T05:34:57;5.22;;;0.93;;
74448;SDS011;62878;51.026;4.472;2022-12-07T05:37:23;1.98;;;1.23;;
74448;SDS011;62878;51.026;4.472;2022-12-07T05:39:48;2.00;;;0.90;;
74448;SDS011;62878;51.026;4.472;2022-12-07T05:42:13;1.98;;;0.75;;
74448;SDS011;62878;51.026;4.472;2022-12-07T05:44:40;2.47;;;0.80;;
74448;SDS011;62878;51.026;4.472;2022-12-07T05:47:07;3.03;;;1.10;;
74448;SDS011;62878;51.026;4.472;2022-12-07T05:49:32;1.05;;;0.60;;
74448;SDS011;62878;51.026;4.472;2022-12-07T05:51:57;1.02;;;0.50;;
74448;SDS011;62878;51.026;4.472;2022-12-07T05:54:23;1.98;;;0.90;;
74448;SDS011;62878;51.026;4.472;2022-12-07T05:56:49;0.68;;;0.40;;
74448;SDS011;62878;51.026;4.472;2022-12-07T05:59:14;2.05;;;0.80;;
74448;SDS011;62878;51.026;4.472;2022-12-07T06:01:50;1.70;;;0.63;;
74448;SDS011;62878;51.026;4.472;2022-12-07T06:04:16;1.83;;;0.55;;
74448;SDS011;62878;51.026;4.472;2022-12-07T06:06:41;2.30;;;0.75;;
74448;SDS011;62878;51.026;4.472;2022-12-07T06:09:07;1.25;;;0.68;;
74448;SDS011;62878;51.026;4.472;2022-12-07T06:11:32;1.65;;;0.95;;
74448;SDS011;62878;51.026;4.472;2022-12-07T06:14:16;1.67;;;0.60;;
74448;SDS011;62878;51.026;4.472;2022-12-07T06:16:41;2.47;;;0.60;;
74448;SDS011;62878;51.026;4.472;2022-12-07T06:19:07;1.30;;;0.70;;
74448;SDS011;62878;51.026;4.472;2022-12-07T06:21:32;4.30;;;0.80;;
74448;SDS011;62878;51.026;4.472;2022-12-07T06:23:57;2.72;;;0.90;;
74448;SDS011;62878;51.026;4.472;2022-12-07T06:26:23;1.30;;;0.70;;
74448;SDS011;62878;51.026;4.472;2022-12-07T06:28:48;1.25;;;0.50;;
74448;SDS011;62878;51.026;4.472;2022-12-07T06:31:13;2.17;;;0.70;;
74448;SDS011;62878;51.026;4.472;2022-12-07T06:33:39;2.65;;;0.88;;
74448;SDS011;62878;51.026;4.472;2022-12-07T06:36:05;3.58;;;0.63;;
74448;SDS011;62878;51.026;4.472;2022-12-07T06:38:30;3.45;;;0.82;;
74448;SDS011;62878;51.026;4.472;2022-12-07T06:40:56;3.10;;;0.60;;
74448;SDS011;62878;51.026;4.472;2022-12-07T06:43:21;1.50;;;0.43;;
74448;SDS011;62878;51.026;4.472;2022-12-07T06:45:46;0.98;;;0.68;;
74448;SDS011;62878;51.026;4.472;2022-12-07T06:48:12;2.17;;;0.50;;
74448;SDS011;62878;51.026;4.472;2022-12-07T06:50:37;3.15;;;0.63;;
74448;SDS011;62878;51.026;4.472;2022-12-07T06:53:02;1.70;;;0.70;;
74448;SDS011;62878;51.026;4.472;2022-12-07T06:55:28;2.55;;;0.90;;
74448;SDS011;62878;51.026;4.472;2022-12-07T06:57:54;2.50;;;0.90;;
74448;SDS011;62878;51.026;4.472;2022-12-07T07:00:19;0.88;;;0.60;;
74448;SDS011;62878;51.026;4.472;2022-12-07T07:02:45;1.20;;;0.68;;
74448;SDS011;62878;51.026;4.472;2022-12-07T07:05:10;1.67;;;0.80;;
74448;SDS011;62878;51.026;4.472;2022-12-07T07:07:37;1.88;;;0.52;;
74448;SDS011;62878;51.026;4.472;2022-12-07T07:10:02;4.28;;;0.60;;
74448;SDS011;62878;51.026;4.472;2022-12-07T07:12:28;1.30;;;0.65;;
74448;SDS011;62878;51.026;4.472;2022-12-07T07:14:53;1.67;;;0.75;;
74448;SDS011;62878;51.026;4.472;2022-12-07T07:17:19;1.13;;;0.70;;
74448;SDS011;62878;51.026;4.472;2022-12-07T07:19:44;2.28;;;0.60;;
74448;SDS011;62878;51.026;4.472;2022-12-07T07:22:09;2.00;;;0.73;;
74448;SDS011;62878;51.026;4.472;2022-12-07T07:24:35;3.13;;;0.60;;
74448;SDS011;62878;51.026;4.472;2022-12-07T07:27:00;1.13;;;0.50;;
74448;SDS011;62878;51.026;4.472;2022-12-07T07:29:26;1.23;;;0.60;;
74448;SDS011;62878;51.026;4.472;2022-12-07T07:31:51;1.50;;;0.70;;
74448;SDS011;62878;51.026;4.472;2022-12-07T07:34:17;3.25;;;0.80;;
74448;SDS011;62878;51.026;4.472;2022-12-07T07:36:43;1.45;;;0.57;;
74448;SDS011;62878;51.026;4.472;2022-12-07T07:39:09;2.08;;;0.50;;
74448;SDS011;62878;51.026;4.472;2022-12-07T07:41:37;1.77;;;0.75;;
74448;SDS011;62878;51.026;4.472;2022-12-07T07:44:02;1.95;;;0.77;;
74448;SDS011;62878;51.026;4.472;2022-12-07T07:46:28;3.17;;;0.63;;
74448;SDS011;62878;51.026;4.472;2022-12-07T07:48:53;1.27;;;0.80;;
74448;SDS011;62878;51.026;4.472;2022-12-07T07:51:18;1.13;;;0.60;;
74448;SDS011;62878;51.026;4.472;2022-12-07T07:53:44;2.08;;;0.80;;
74448;SDS011;62878;51.026;4.472;2022-12-07T07:56:09;1.42;;;0.70;;
74448;SDS011;62878;51.026;4.472;2022-12-07T07:58:34;1.52;;;0.60;;
74448;SDS011;62878;51.026;4.472;2022-12-07T08:01:07;1.00;;;0.50;;
74448;SDS011;62878;51.026;4.472;2022-12-07T08:03:33;1.83;;;0.60;;
74448;SDS011;62878;51.026;4.472;2022-12-07T08:05:58;1.90;;;0.70;;
74448;SDS011;62878;51.026;4.472;2022-12-07T08:08:24;1.20;;;0.52;;
74448;SDS011;62878;51.026;4.472;2022-12-07T08:10:49;2.33;;;0.68;;
74448;SDS011;62878;51.026;4.472;2022-12-07T08:13:16;3.05;;;0.80;;
74448;SDS011;62878;51.026;4.472;2022-12-07T08:15:43;1.92;;;0.80;;
74448;SDS011;62878;51.026;4.472;2022-12-07T08:18:11;3.10;;;0.50;;
74448;SDS011;62878;51.026;4.472;2022-12-07T08:20:37;4.32;;;0.75;;
74448;SDS011;62878;51.026;4.472;2022-12-07T08:23:03;3.10;;;0.80;;
74448;SDS011;62878;51.026;4.472;2022-12-07T08:25:29;2.20;;;0.80;;
74448;SDS011;62878;51.026;4.472;2022-12-07T08:27:55;0.88;;;0.80;;
74448;SDS011;62878;51.026;4.472;2022-12-07T08:30:20;3.97;;;0.70;;
74448;SDS011;62878;51.026;4.472;2022-12-07T08:32:46;3.25;;;0.70;;
74448;SDS011;62878;51.026;4.472;2022-12-07T08:35:13;1.90;;;0.73;;
74448;SDS011;62878;51.026;4.472;2022-12-07T08:37:39;2.38;;;0.60;;
74448;SDS011;62878;51.026;4.472;2022-12-07T08:40:05;2.35;;;0.60;;
74448;SDS011;62878;51.026;4.472;2022-12-07T08:42:31;3.17;;;0.75;;
74448;SDS011;62878;51.026;4.472;2022-12-07T08:45:04;3.42;;;0.80;;
74448;SDS011;62878;51.026;4.472;2022-12-07T08:47:37;2.72;;;0.63;;
74448;SDS011;62878;51.026;4.472;2022-12-07T08:50:06;1.35;;;0.50;;
74448;SDS011;62878;51.026;4.472;2022-12-07T08:52:34;1.98;;;0.90;;
74448;SDS011;62878;51.026;4.472;2022-12-07T08:55:00;2.70;;;1.08;;
74448;SDS011;62878;51.026;4.472;2022-12-07T08:57:27;2.55;;;0.57;;
74448;SDS011;62878;51.026;4.472;2022-12-07T08:59:53;4.32;;;1.58;;
74448;SDS011;62878;51.026;4.472;2022-12-07T09:02:19;6.85;;;2.60;;
74448;SDS011;62878;51.026;4.472;2022-12-07T09:04:44;4.60;;;1.60;;
74448;SDS011;62878;51.026;4.472;2022-12-07T09:07:09;5.78;;;2.05;;
74448;SDS011;62878;51.026;4.472;2022-12-07T09:09:35;4.20;;;1.70;;
74448;SDS011;62878;51.026;4.472;2022-12-07T09:12:00;3.40;;;1.60;;
74448;SDS011;62878;51.026;4.472;2022-12-07T09:14:26;6.85;;;1.52;;
74448;SDS011;62878;51.026;4.472;2022-12-07T09:16:51;4.93;;;1.25;;
74448;SDS011;62878;51.026;4.472;2022-12-07T09:19:17;5.30;;;2.15;;
74448;SDS011;62878;51.026;4.472;2022-12-07T09:21:42;3.15;;;0.90;;
74448;SDS011;62878;51.026;4.472;2022-12-07T09:24:08;6.40;;;1.45;;
74448;SDS011;62878;51.026;4.472;2022-12-07T09:26:34;3.88;;;1.08;;
74448;SDS011;62878;51.026;4.472;2022-12-07T09:29:00;4.88;;;1.20;;
74448;SDS011;62878;51.026;4.472;2022-12-07T09:31:26;3.28;;;1.00;;
74448;SDS011;62878;51.026;4.472;2022-12-07T09:33:55;3.65;;;0.77;;
74448;SDS011;62878;51.026;4.472;2022-12-07T09:36:22;7.07;;;1.48;;
74448;SDS011;62878;51.026;4.472;2022-12-07T09:38:48;4.30;;;0.98;;
74448;SDS011;62878;51.026;4.472;2022-12-07T09:41:13;10.45;;;1.55;;
74448;SDS011;62878;51.026;4.472;2022-12-07T09:43:40;5.07;;;1.38;;
74448;SDS011;62878;51.026;4.472;2022-12-07T09:46:08;3.40;;;0.82;;
74448;SDS011;62878;51.026;4.472;2022-12-07T09:48:38;2.95;;;0.93;;
74448;SDS011;62878;51.026;4.472;2022-12-07T09:53:45;4.03;;;0.82;;
74448;SDS011;62878;51.026;4.472;2022-12-07T09:56:14;1.80;;;0.63;;
74448;SDS011;62878;51.026;4.472;2022-12-07T09:58:40;2.10;;;0.60;;
74448;SDS011;62878;51.026;4.472;2022-12-07T10:03:32;2.58;;;1.15;;
74448;SDS011;62878;51.026;4.472;2022-12-07T10:05:58;1.10;;;0.60;;
74448;SDS011;62878;51.026;4.472;2022-12-07T10:08:24;1.40;;;0.60;;
74448;SDS011;62878;51.026;4.472;2022-12-07T10:10:54;3.80;;;0.80;;
74448;SDS011;62878;51.026;4.472;2022-12-07T10:13:43;1.98;;;0.68;;
74448;SDS011;62878;51.026;4.472;2022-12-07T10:18:50;1.45;;;0.60;;
74448;SDS011;62878;51.026;4.472;2022-12-07T10:21:17;3.67;;;0.60;;
74448;SDS011;62878;51.026;4.472;2022-12-07T10:24:02;2.97;;;0.75;;
74448;SDS011;62878;51.026;4.472;2022-12-07T10:29:30;4.25;;;1.02;;
74448;SDS011;62878;51.026;4.472;2022-12-07T10:34:28;2.97;;;0.77;;
74448;SDS011;62878;51.026;4.472;2022-12-07T10:39:43;4.07;;;0.47;;
74448;SDS011;62878;51.026;4.472;2022-12-07T10:42:16;1.27;;;0.50;;
74448;SDS011;62878;51.026;4.472;2022-12-07T10:44:41;2.22;;;0.47;;
74448;SDS011;62878;51.026;4.472;2022-12-07T10:50:00;3.72;;;0.50;;
74448;SDS011;62878;51.026;4.472;2022-12-07T11:00:23;2.65;;;0.90;;
74448;SDS011;62878;51.026;4.472;2022-12-07T11:11:38;5.78;;;1.90;;
74448;SDS011;62878;51.026;4.472;2022-12-07T11:17:11;5.50;;;1.50;;
74448;SDS011;62878;51.026;4.472;2022-12-07T11:25:49;4.10;;;1.30;;
74448;SDS011;62878;51.026;4.472;2022-12-07T11:31:06;4.88;;;0.93;;
74448;SDS011;62878;51.026;4.472;2022-12-07T11:33:46;2.13;;;0.80;;
74448;SDS011;62878;51.026;4.472;2022-12-07T11:41:47;1.45;;;0.82;;
74448;SDS011;62878;51.026;4.472;2022-12-07T11:47:40;1.25;;;0.50;;
74448;SDS011;62878;51.026;4.472;2022-12-07T11:55:47;4.22;;;0.85;;
74448;SDS011;62878;51.026;4.472;2022-12-07T12:03:46;2.38;;;0.98;;
74448;SDS011;62878;51.026;4.472;2022-12-07T12:06:14;5.40;;;1.08;;
74448;SDS011;62878;51.026;4.472;2022-12-07T12:08:41;2.95;;;0.50;;
74448;SDS011;62878;51.026;4.472;2022-12-07T12:20:25;2.42;;;0.50;;
74448;SDS011;62878;51.026;4.472;2022-12-07T12:25:52;3.22;;;0.88;;
74448;SDS011;62878;51.026;4.472;2022-12-07T12:28:25;0.80;;;0.68;;
74448;SDS011;62878;51.026;4.472;2022-12-07T12:31:15;1.52;;;0.47;;
74448;SDS011;62878;51.026;4.472;2022-12-07T12:33:57;4.03;;;0.80;;
74448;SDS011;62878;51.026;4.472;2022-12-07T12:36:26;5.32;;;1.42;;
74448;SDS011;62878;51.026;4.472;2022-12-07T12:47:00;3.60;;;0.80;;
74448;SDS011;62878;51.026;4.472;2022-12-07T12:49:34;3.65;;;0.80;;
74448;SDS011;62878;51.026;4.472;2022-12-07T12:54:40;1.35;;;0.50;;
74448;SDS011;62878;51.026;4.472;2022-12-07T12:57:26;6.85;;;2.47;;
74448;SDS011;62878;51.026;4.472;2022-12-07T13:12:59;5.05;;;0.75;;
74448;SDS011;62878;51.026;4.472;2022-12-07T13:20:56;3.30;;;0.40;;
74448;SDS011;62878;51.026;4.472;2022-12-07T13:26:35;1.30;;;0.30;;
74448;SDS011;62878;51.026;4.472;2022-12-07T13:34:28;3.17;;;0.30;;
74448;SDS011;62878;51.026;4.472;2022-12-07T13:36:59;2.25;;;0.57;;
74448;SDS011;62878;51.026;4.472;2022-12-07T13:39:28;0.30;;;0.20;;
74448;SDS011;62878;51.026;4.472;2022-12-07T13:41:57;4.47;;;0.90;;
74448;SDS011;62878;51.026;4.472;2022-12-07T13:44:25;3.20;;;0.40;;
74448;SDS011;62878;51.026;4.472;2022-12-07T13:49:32;1.38;;;0.30;;
74448;SDS011;62878;51.026;4.472;2022-12-07T13:52:13;1.08;;;0.22;;
74448;SDS011;62878;51.026;4.472;2022-12-07T13:57:15;1.30;;;0.20;;
74448;SDS011;62878;51.026;4.472;2022-12-07T13:59:41;2.55;;;0.20;;
74448;SDS011;62878;51.026;4.472;2022-12-07T14:02:17;0.90;;;0.30;;
74448;SDS011;62878;51.026;4.472;2022-12-07T14:04:46;3.65;;;0.30;;
74448;SDS011;62878;51.026;4.472;2022-12-07T14:07:32;2.05;;;0.65;;
74448;SDS011;62878;51.026;4.472;2022-12-07T14:10:23;1.73;;;0.32;;
74448;SDS011;62878;51.026;4.472;2022-12-07T14:12:50;3.47;;;0.30;;
74448;SDS011;62878;51.026;4.472;2022-12-07T14:15:20;1.20;;;0.20;;
74448;SDS011;62878;51.026;4.472;2022-12-07T14:17:51;4.38;;;0.35;;
74448;SDS011;62878;51.026;4.472;2022-12-07T14:20:37;0.75;;;0.30;;
74448;SDS011;62878;51.026;4.472;2022-12-07T14:23:04;5.80;;;0.45;;
74448;SDS011;62878;51.026;4.472;2022-12-07T14:25:46;3.50;;;0.20;;
74448;SDS011;62878;51.026;4.472;2022-12-07T14:28:29;0.73;;;0.40;;
74448;SDS011;62878;51.026;4.472;2022-12-07T14:30:58;1.55;;;0.40;;
74448;SDS011;62878;51.026;4.472;2022-12-07T14:33:24;0.82;;;0.20;;
74448;SDS011;62878;51.026;4.472;2022-12-07T14:35:50;0.85;;;0.10;;
74448;SDS011;62878;51.026;4.472;2022-12-07T14:38:23;0.40;;;0.15;;
74448;SDS011;62878;51.026;4.472;2022-12-07T14:40:49;0.85;;;0.20;;
74448;SDS011;62878;51.026;4.472;2022-12-07T14:43:16;0.50;;;0.20;;
74448;SDS011;62878;51.026;4.472;2022-12-07T14:45:43;0.50;;;0.17;;
74448;SDS011;62878;51.026;4.472;2022-12-07T14:48:12;0.95;;;0.22;;
74448;SDS011;62878;51.026;4.472;2022-12-07T14:50:45;0.47;;;0.20;;
74448;SDS011;62878;51.026;4.472;2022-12-07T14:53:16;1.52;;;0.20;;
74448;SDS011;62878;51.026;4.472;2022-12-07T14:55:45;1.02;;;0.17;;
74448;SDS011;62878;51.026;4.472;2022-12-07T14:58:13;0.90;;;0.13;;
74448;SDS011;62878;51.026;4.472;2022-12-07T15:00:40;0.85;;;0.20;;
74448;SDS011;62878;51.026;4.472;2022-12-07T15:03:06;0.50;;;0.22;;
74448;SDS011;62878;51.026;4.472;2022-12-07T15:05:33;0.75;;;0.20;;
74448;SDS011;62878;51.026;4.472;2022-12-07T15:08:00;0.50;;;0.13;;
74448;SDS011;62878;51.026;4.472;2022-12-07T15:10:27;0.57;;;0.22;;
74448;SDS011;62878;51.026;4.472;2022-12-07T15:12:56;1.95;;;0.20;;
74448;SDS011;62878;51.026;4.472;2022-12-07T15:15:50;1.27;;;0.20;;
74448;SDS011;62878;51.026;4.472;2022-12-07T15:18:17;0.35;;;0.20;;
74448;SDS011;62878;51.026;4.472;2022-12-07T15:20:43;0.20;;;0.20;;
74448;SDS011;62878;51.026;4.472;2022-12-07T15:23:09;0.68;;;0.20;;
74448;SDS011;62878;51.026;4.472;2022-12-07T15:25:35;2.25;;;0.30;;
74448;SDS011;62878;51.026;4.472;2022-12-07T15:28:01;0.82;;;0.28;;
74448;SDS011;62878;51.026;4.472;2022-12-07T15:30:26;0.63;;;0.20;;
74448;SDS011;62878;51.026;4.472;2022-12-07T15:32:52;1.70;;;0.17;;
74448;SDS011;62878;51.026;4.472;2022-12-07T15:35:18;1.40;;;0.30;;
74448;SDS011;62878;51.026;4.472;2022-12-07T15:37:44;1.23;;;0.30;;
74448;SDS011;62878;51.026;4.472;2022-12-07T15:40:10;0.93;;;0.20;;
74448;SDS011;62878;51.026;4.472;2022-12-07T15:42:36;0.77;;;0.20;;
74448;SDS011;62878;51.026;4.472;2022-12-07T15:45:02;1.38;;;0.30;;
74448;SDS011;62878;51.026;4.472;2022-12-07T15:47:29;1.60;;;0.20;;
74448;SDS011;62878;51.026;4.472;2022-12-07T15:49:55;0.63;;;0.15;;
74448;SDS011;62878;51.026;4.472;2022-12-07T15:52:20;0.40;;;0.20;;
74448;SDS011;62878;51.026;4.472;2022-12-07T15:54:46;0.63;;;0.17;;
74448;SDS011;62878;51.026;4.472;2022-12-07T15:57:12;0.57;;;0.10;;
74448;SDS011;62878;51.026;4.472;2022-12-07T15:59:38;0.50;;;0.20;;
74448;SDS011;62878;51.026;4.472;2022-12-07T16:02:04;0.93;;;0.28;;
74448;SDS011;62878;51.026;4.472;2022-12-07T16:04:29;0.98;;;0.20;;
74448;SDS011;62878;51.026;4.472;2022-12-07T16:06:55;0.98;;;0.20;;
74448;SDS011;62878;51.026;4.472;2022-12-07T16:09:20;0.57;;;0.10;;
74448;SDS011;62878;51.026;4.472;2022-12-07T16:11:47;0.68;;;0.30;;
74448;SDS011;62878;51.026;4.472;2022-12-07T16:14:12;0.63;;;0.10;;
74448;SDS011;62878;51.026;4.472;2022-12-07T16:16:37;0.32;;;0.17;;
74448;SDS011;62878;51.026;4.472;2022-12-07T16:19:05;0.75;;;0.20;;
74448;SDS011;62878;51.026;4.472;2022-12-07T16:21:33;2.25;;;0.30;;
74448;SDS011;62878;51.026;4.472;2022-12-07T16:23:58;2.30;;;0.20;;
74448;SDS011;62878;51.026;4.472;2022-12-07T16:26:24;0.40;;;0.20;;
74448;SDS011;62878;51.026;4.472;2022-12-07T16:28:49;8.25;;;0.40;;
74448;SDS011;62878;51.026;4.472;2022-12-07T16:31:18;1.30;;;0.17;;
74448;SDS011;62878;51.026;4.472;2022-12-07T16:33:45;1.00;;;0.20;;
74448;SDS011;62878;51.026;4.472;2022-12-07T16:36:12;1.20;;;0.20;;
74448;SDS011;62878;51.026;4.472;2022-12-07T16:38:42;1.65;;;0.30;;
74448;SDS011;62878;51.026;4.472;2022-12-07T16:41:09;3.05;;;0.35;;
74448;SDS011;62878;51.026;4.472;2022-12-07T16:43:35;0.60;;;0.10;;
74448;SDS011;62878;51.026;4.472;2022-12-07T16:46:01;6.97;;;0.30;;
74448;SDS011;62878;51.026;4.472;2022-12-07T16:48:28;0.93;;;0.30;;
74448;SDS011;62878;51.026;4.472;2022-12-07T16:50:53;0.90;;;0.30;;
74448;SDS011;62878;51.026;4.472;2022-12-07T16:53:19;2.92;;;0.20;;
74448;SDS011;62878;51.026;4.472;2022-12-07T16:55:46;1.90;;;0.30;;
74448;SDS011;62878;51.026;4.472;2022-12-07T16:58:12;0.50;;;0.20;;
74448;SDS011;62878;51.026;4.472;2022-12-07T17:00:40;0.93;;;0.30;;
74448;SDS011;62878;51.026;4.472;2022-12-07T17:03:07;1.38;;;0.30;;
74448;SDS011;62878;51.026;4.472;2022-12-07T17:05:32;1.33;;;0.30;;
74448;SDS011;62878;51.026;4.472;2022-12-07T17:08:02;1.40;;;0.40;;
74448;SDS011;62878;51.026;4.472;2022-12-07T17:10:28;0.35;;;0.35;;
74448;SDS011;62878;51.026;4.472;2022-12-07T17:12:54;1.70;;;0.30;;
74448;SDS011;62878;51.026;4.472;2022-12-07T17:15:19;0.20;;;0.20;;
74448;SDS011;62878;51.026;4.472;2022-12-07T17:17:55;1.45;;;0.35;;
74448;SDS011;62878;51.026;4.472;2022-12-07T17:20:24;2.97;;;0.20;;
74448;SDS011;62878;51.026;4.472;2022-12-07T17:22:52;0.73;;;0.25;;
74448;SDS011;62878;51.026;4.472;2022-12-07T17:25:19;1.30;;;0.30;;
74448;SDS011;62878;51.026;4.472;2022-12-07T17:27:50;1.10;;;0.20;;
74448;SDS011;62878;51.026;4.472;2022-12-07T17:30:16;0.50;;;0.20;;
74448;SDS011;62878;51.026;4.472;2022-12-07T17:32:42;0.50;;;0.20;;
74448;SDS011;62878;51.026;4.472;2022-12-07T17:35:07;2.38;;;0.68;;
74448;SDS011;62878;51.026;4.472;2022-12-07T17:37:33;0.85;;;0.20;;
74448;SDS011;62878;51.026;4.472;2022-12-07T17:39:58;1.65;;;0.30;;
74448;SDS011;62878;51.026;4.472;2022-12-07T17:42:25;1.52;;;0.65;;